createdAt,value
2017-04-23T00:00:23.318Z,1011.19
2017-04-23T00:01:03.819Z,1011.14
2017-04-23T00:01:44.317Z,1011.14
2017-04-23T00:02:24.808Z,1011.11
2017-04-23T00:03:05.346Z,1011.09
2017-04-23T00:03:45.943Z,1011.12
2017-04-23T00:04:26.479Z,1011.09
2017-04-23T00:05:06.983Z,1011.13
2017-04-23T00:05:47.501Z,1011.1
2017-04-23T00:06:27.985Z,1011.07
2017-04-23T00:07:08.442Z,1011.06
2017-04-23T00:07:48.943Z,1011.07
2017-04-23T00:08:29.428Z,1011.05
2017-04-23T00:09:09.917Z,1011.05
2017-04-23T00:09:50.408Z,1011.01
2017-04-23T00:10:30.864Z,1011.05
2017-04-23T00:11:11.394Z,1011.02
2017-04-23T00:11:51.869Z,1011.04
2017-04-23T00:12:32.329Z,1011.02
2017-04-23T00:13:12.825Z,1011.01
2017-04-23T00:13:53.303Z,1011.01
2017-04-23T00:14:33.802Z,1010.98
2017-04-23T00:15:14.307Z,1011.04
2017-04-23T00:15:54.791Z,1011
2017-04-23T00:16:35.306Z,1011.01
2017-04-23T00:17:15.759Z,1011.02
2017-04-23T00:17:56.465Z,1011.02
2017-04-23T00:18:36.962Z,1011.01
2017-04-23T00:19:17.474Z,1010.97
2017-04-23T00:19:57.935Z,1010.99
2017-04-23T00:20:38.417Z,1011.01
2017-04-23T00:21:18.951Z,1010.93
2017-04-23T00:21:59.467Z,1010.95
2017-04-23T00:22:39.964Z,1010.94
2017-04-23T00:23:20.442Z,1010.97
2017-04-23T00:24:00.952Z,1010.92
2017-04-23T00:24:41.497Z,1010.92
2017-04-23T00:25:22.036Z,1010.95
2017-04-23T00:26:02.502Z,1010.95
2017-04-23T00:26:43.005Z,1010.99
2017-04-23T00:27:23.608Z,1011.03
2017-04-23T00:28:04.113Z,1011
2017-04-23T00:28:44.579Z,1010.97
2017-04-23T00:29:25.116Z,1010.98
2017-04-23T00:30:05.558Z,1010.93
2017-04-23T00:30:46.071Z,1010.96
2017-04-23T00:31:26.572Z,1010.93
2017-04-23T00:32:07.050Z,1010.91
2017-04-23T00:32:47.539Z,1010.94
2017-04-23T00:33:28.045Z,1010.96
2017-04-23T00:34:08.531Z,1010.93
2017-04-23T00:34:49.039Z,1010.92
2017-04-23T00:35:29.503Z,1010.91
2017-04-23T00:36:09.986Z,1010.88
2017-04-23T00:36:50.490Z,1010.92
2017-04-23T00:37:30.942Z,1010.93
2017-04-23T00:38:11.425Z,1010.92
2017-04-23T00:38:51.961Z,1010.94
2017-04-23T00:39:32.467Z,1010.93
2017-04-23T00:40:12.949Z,1010.93
2017-04-23T00:40:53.401Z,1010.95
2017-04-23T00:41:33.903Z,1010.99
2017-04-23T00:42:14.415Z,1010.91
2017-04-23T00:42:54.901Z,1010.97
2017-04-23T00:43:35.404Z,1010.95
2017-04-23T00:44:15.897Z,1010.95
2017-04-23T00:44:56.379Z,1010.91
2017-04-23T00:45:36.880Z,1010.95
2017-04-23T00:46:17.399Z,1010.96
2017-04-23T00:46:57.892Z,1010.95
2017-04-23T00:47:38.431Z,1010.89
2017-04-23T00:48:18.908Z,1010.89
2017-04-23T00:48:59.415Z,1010.9
2017-04-23T00:49:39.881Z,1010.92
2017-04-23T00:50:20.379Z,1010.91
2017-04-23T00:52:33.600Z,1010.92
2017-04-23T00:53:14.107Z,1010.95
2017-04-23T00:53:54.593Z,1010.85
2017-04-23T00:54:35.100Z,1010.9
2017-04-23T00:55:15.610Z,1010.94
2017-04-23T00:55:56.119Z,1010.94
2017-04-23T00:56:36.626Z,1010.99
2017-04-23T00:57:17.117Z,1010.95
2017-04-23T00:57:57.607Z,1010.94
2017-04-23T00:58:38.116Z,1010.94
2017-04-23T00:59:18.602Z,1010.96
2017-04-23T00:59:59.083Z,1010.95
2017-04-23T01:00:39.577Z,1010.92
2017-04-23T01:01:20.090Z,1010.9
2017-04-23T01:02:00.545Z,1010.93
2017-04-23T01:02:41.064Z,1010.94
2017-04-23T01:03:21.566Z,1010.9
2017-04-23T01:04:02.035Z,1010.9
2017-04-23T01:04:42.599Z,1010.92
2017-04-23T01:05:23.044Z,1010.91
2017-04-23T01:06:03.565Z,1010.87
2017-04-23T01:06:44.035Z,1010.9
2017-04-23T01:07:24.511Z,1010.85
2017-04-23T01:08:05.012Z,1010.86
2017-04-23T01:08:45.529Z,1010.87
2017-04-23T01:09:26.058Z,1010.87
2017-04-23T01:10:06.517Z,1010.85
2017-04-23T01:10:47.004Z,1010.86
2017-04-23T01:11:27.529Z,1010.86
2017-04-23T01:12:08.010Z,1010.84
2017-04-23T01:12:48.487Z,1010.83
2017-04-23T01:13:28.980Z,1010.84
2017-04-23T01:14:09.528Z,1010.82
2017-04-23T01:14:50.027Z,1010.8
2017-04-23T01:15:30.477Z,1010.82
2017-04-23T01:16:10.970Z,1010.81
2017-04-23T01:16:51.494Z,1010.81
2017-04-23T01:17:31.946Z,1010.82
2017-04-23T01:18:12.442Z,1010.8
2017-04-23T01:18:52.962Z,1010.81
2017-04-23T01:19:33.432Z,1010.77
2017-04-23T01:20:13.902Z,1010.81
2017-04-23T01:20:54.380Z,1010.78
2017-04-23T01:21:34.884Z,1010.83
2017-04-23T01:22:15.363Z,1010.79
2017-04-23T01:22:55.886Z,1010.8
2017-04-23T01:23:36.358Z,1010.78
2017-04-23T01:24:16.847Z,1010.78
2017-04-23T01:24:57.365Z,1010.79
2017-04-23T01:25:37.861Z,1010.77
2017-04-23T01:26:18.368Z,1010.83
2017-04-23T01:26:58.868Z,1010.79
2017-04-23T01:27:39.353Z,1010.76
2017-04-23T01:28:19.863Z,1010.78
2017-04-23T01:29:00.345Z,1010.84
2017-04-23T01:29:40.824Z,1010.79
2017-04-23T01:30:21.321Z,1010.84
2017-04-23T01:31:01.843Z,1010.84
2017-04-23T01:31:42.346Z,1010.85
2017-04-23T01:32:22.825Z,1010.84
2017-04-23T01:33:03.309Z,1010.93
2017-04-23T01:33:43.817Z,1010.89
2017-04-23T01:34:24.371Z,1010.91
2017-04-23T01:35:04.841Z,1010.84
2017-04-23T01:35:45.347Z,1010.86
2017-04-23T01:36:25.883Z,1010.85
2017-04-23T01:37:06.315Z,1010.82
2017-04-23T01:37:46.834Z,1010.87
2017-04-23T01:38:27.509Z,1010.85
2017-04-23T01:39:08.067Z,1010.84
2017-04-23T01:39:48.538Z,1010.8
2017-04-23T01:40:29.002Z,1010.86
2017-04-23T01:41:09.512Z,1010.86
2017-04-23T01:41:49.991Z,1010.85
2017-04-23T01:42:30.472Z,1010.86
2017-04-23T01:43:10.967Z,1010.86
2017-04-23T01:43:51.457Z,1010.88
2017-04-23T01:44:31.983Z,1010.9
2017-04-23T01:45:12.503Z,1010.85
2017-04-23T01:45:52.942Z,1010.88
2017-04-23T01:46:33.452Z,1010.97
2017-04-23T01:47:13.956Z,1010.9
2017-04-23T01:47:54.428Z,1010.92
2017-04-23T01:48:34.901Z,1010.91
2017-04-23T01:49:15.351Z,1010.85
2017-04-23T01:49:55.878Z,1010.91
2017-04-23T01:50:36.393Z,1010.93
2017-04-23T01:51:16.847Z,1010.94
2017-04-23T01:51:57.365Z,1010.94
2017-04-23T01:52:37.888Z,1010.94
2017-04-23T01:53:18.336Z,1010.93
2017-04-23T01:53:58.867Z,1010.97
2017-04-23T01:54:39.354Z,1010.96
2017-04-23T01:55:19.855Z,1010.97
2017-04-23T01:56:00.319Z,1011
2017-04-23T01:56:40.850Z,1010.99
2017-04-23T01:57:21.307Z,1010.99
2017-04-23T01:58:01.815Z,1010.96
2017-04-23T01:58:42.322Z,1010.95
2017-04-23T01:59:22.838Z,1011.02
2017-04-23T02:00:03.336Z,1011.01
2017-04-23T02:00:43.843Z,1011.03
2017-04-23T02:01:24.319Z,1011.01
2017-04-23T02:02:04.794Z,1011.04
2017-04-23T02:02:45.274Z,1011.01
2017-04-23T02:03:25.773Z,1011.02
2017-04-23T02:04:06.264Z,1011.05
2017-04-23T02:04:46.761Z,1011.01
2017-04-23T02:05:27.241Z,1011.02
2017-04-23T02:06:07.748Z,1010.97
2017-04-23T02:06:48.271Z,1010.99
2017-04-23T02:07:28.713Z,1011.01
2017-04-23T02:08:09.194Z,1011
2017-04-23T02:08:49.742Z,1011
2017-04-23T02:09:30.215Z,1011.02
2017-04-23T02:10:10.734Z,1010.96
2017-04-23T02:10:51.269Z,1010.91
2017-04-23T02:11:31.722Z,1010.9
2017-04-23T02:12:12.243Z,1010.94
2017-04-23T02:12:52.870Z,1010.97
2017-04-23T02:13:33.289Z,1010.94
2017-04-23T02:14:13.816Z,1010.96
2017-04-23T02:14:54.296Z,1010.93
2017-04-23T02:15:34.788Z,1010.94
2017-04-23T02:16:15.283Z,1010.94
2017-04-23T02:16:55.785Z,1010.96
2017-04-23T02:17:36.302Z,1010.91
2017-04-23T02:18:16.799Z,1010.93
2017-04-23T02:18:57.291Z,1010.9
2017-04-23T02:19:37.837Z,1010.91
2017-04-23T02:20:18.336Z,1010.97
2017-04-23T02:20:58.792Z,1010.95
2017-04-23T02:21:39.269Z,1010.92
2017-04-23T02:22:19.792Z,1010.98
2017-04-23T02:23:00.258Z,1010.99
2017-04-23T02:23:40.735Z,1010.98
2017-04-23T02:24:21.233Z,1010.98
2017-04-23T02:25:01.708Z,1011.01
2017-04-23T02:25:42.203Z,1010.99
2017-04-23T02:26:22.731Z,1010.98
2017-04-23T02:27:03.182Z,1011.04
2017-04-23T02:27:43.735Z,1011.02
2017-04-23T02:28:24.224Z,1010.99
2017-04-23T02:29:04.688Z,1011.07
2017-04-23T02:29:45.182Z,1011.02
2017-04-23T02:30:25.635Z,1011
2017-04-23T02:31:06.135Z,1010.99
2017-04-23T02:31:46.638Z,1011.04
2017-04-23T02:32:27.115Z,1010.99
2017-04-23T02:33:07.624Z,1011.07
2017-04-23T02:33:48.139Z,1011.02
2017-04-23T02:34:28.656Z,1011.04
2017-04-23T02:35:09.148Z,1011.06
2017-04-23T02:35:49.638Z,1011.03
2017-04-23T02:36:30.147Z,1011.02
2017-04-23T02:37:10.634Z,1011.02
2017-04-23T02:37:51.121Z,1011.02
2017-04-23T02:38:31.629Z,1011.02
2017-04-23T02:39:12.158Z,1010.97
2017-04-23T02:39:52.586Z,1010.97
2017-04-23T02:40:33.242Z,1011
2017-04-23T02:41:13.622Z,1011.03
2017-04-23T02:41:54.114Z,1011.04
2017-04-23T02:42:34.623Z,1011.02
2017-04-23T02:43:15.088Z,1010.99
2017-04-23T02:43:55.593Z,1011.03
2017-04-23T02:44:36.030Z,1011
2017-04-23T02:45:16.543Z,1011.02
2017-04-23T02:45:57.016Z,1011.06
2017-04-23T02:46:37.520Z,1011
2017-04-23T02:47:18.017Z,1011
2017-04-23T02:47:58.496Z,1011
2017-04-23T02:48:39.042Z,1011.05
2017-04-23T02:49:19.512Z,1011.04
2017-04-23T02:49:59.980Z,1011.04
2017-04-23T02:50:40.522Z,1011.05
2017-04-23T02:51:21.013Z,1011.05
2017-04-23T02:52:01.509Z,1011.07
2017-04-23T02:52:41.965Z,1011.08
2017-04-23T02:53:22.472Z,1011.04
2017-04-23T02:54:02.972Z,1011.02
2017-04-23T02:54:43.529Z,1011
2017-04-23T02:55:24.031Z,1011.09
2017-04-23T02:56:04.518Z,1011.01
2017-04-23T02:56:44.996Z,1011.06
2017-04-23T02:57:25.514Z,1011.07
2017-04-23T02:58:06.027Z,1011.09
2017-04-23T02:58:46.549Z,1011.12
2017-04-23T02:59:27.004Z,1011.12
2017-04-23T03:00:07.512Z,1011.12
2017-04-23T03:00:48.015Z,1011.09
2017-04-23T03:01:28.481Z,1011.13
2017-04-23T03:02:08.985Z,1011.16
2017-04-23T03:02:49.471Z,1011.14
2017-04-23T03:03:29.956Z,1011.13
2017-04-23T03:04:10.433Z,1011.12
2017-04-23T03:04:50.903Z,1011.11
2017-04-23T03:05:31.416Z,1011.17
2017-04-23T03:06:11.889Z,1011.14
2017-04-23T03:06:52.441Z,1011.16
2017-04-23T03:07:32.906Z,1011.15
2017-04-23T03:08:13.544Z,1011.13
2017-04-23T03:08:53.950Z,1011.09
2017-04-23T03:09:34.404Z,1011.14
2017-04-23T03:10:14.928Z,1011.14
2017-04-23T03:10:55.427Z,1011.16
2017-04-23T03:11:35.904Z,1011.1
2017-04-23T03:12:16.376Z,1011.11
2017-04-23T03:12:56.921Z,1011.12
2017-04-23T03:13:37.383Z,1011.13
2017-04-23T03:14:17.894Z,1011.15
2017-04-23T03:14:58.357Z,1011.15
2017-04-23T03:15:38.887Z,1011.15
2017-04-23T03:16:19.363Z,1011.17
2017-04-23T03:16:59.876Z,1011.18
2017-04-23T03:17:40.325Z,1011.15
2017-04-23T03:18:20.818Z,1011.14
2017-04-23T03:19:01.343Z,1011.16
2017-04-23T03:19:41.802Z,1011.19
2017-04-23T03:20:22.266Z,1011.15
2017-04-23T03:21:02.786Z,1011.2
2017-04-23T03:21:43.322Z,1011.17
2017-04-23T03:22:23.772Z,1011.18
2017-04-23T03:23:04.288Z,1011.16
2017-04-23T03:23:44.749Z,1011.18
2017-04-23T03:24:25.267Z,1011.2
2017-04-23T03:25:05.786Z,1011.25
2017-04-23T03:25:46.290Z,1011.18
2017-04-23T03:26:26.761Z,1011.2
2017-04-23T03:27:07.242Z,1011.21
2017-04-23T03:27:47.707Z,1011.19
2017-04-23T03:28:28.171Z,1011.2
2017-04-23T03:29:08.696Z,1011.22
2017-04-23T03:29:49.194Z,1011.2
2017-04-23T03:30:29.682Z,1011.21
2017-04-23T03:31:10.163Z,1011.24
2017-04-23T03:31:50.669Z,1011.21
2017-04-23T03:32:31.149Z,1011.2
2017-04-23T03:33:11.756Z,1011.21
2017-04-23T03:33:52.140Z,1011.2
2017-04-23T03:34:32.603Z,1011.2
2017-04-23T03:35:13.140Z,1011.2
2017-04-23T03:35:53.604Z,1011.17
2017-04-23T03:36:34.145Z,1011.17
2017-04-23T03:37:14.647Z,1011.18
2017-04-23T03:37:55.119Z,1011.2
2017-04-23T03:38:35.643Z,1011.21
2017-04-23T03:39:16.148Z,1011.23
2017-04-23T03:39:56.636Z,1011.26
2017-04-23T03:40:37.153Z,1011.22
2017-04-23T03:41:17.645Z,1011.2
2017-04-23T03:41:58.144Z,1011.22
2017-04-23T03:42:38.618Z,1011.22
2017-04-23T03:43:19.160Z,1011.25
2017-04-23T03:43:59.653Z,1011.26
2017-04-23T03:44:40.192Z,1011.3
2017-04-23T03:45:20.682Z,1011.32
2017-04-23T03:46:01.134Z,1011.3
2017-04-23T03:46:41.645Z,1011.23
2017-04-23T03:47:22.148Z,1011.3
2017-04-23T03:48:02.639Z,1011.3
2017-04-23T03:48:43.156Z,1011.26
2017-04-23T03:49:23.615Z,1011.27
2017-04-23T03:50:04.109Z,1011.31
2017-04-23T03:50:44.672Z,1011.3
2017-04-23T03:51:25.105Z,1011.31
2017-04-23T03:52:05.561Z,1011.28
2017-04-23T03:52:46.083Z,1011.33
2017-04-23T03:53:26.572Z,1011.32
2017-04-23T03:54:07.087Z,1011.35
2017-04-23T03:54:47.581Z,1011.35
2017-04-23T03:55:28.052Z,1011.36
2017-04-23T03:56:08.568Z,1011.37
2017-04-23T03:56:49.080Z,1011.36
2017-04-23T03:57:29.524Z,1011.38
2017-04-23T03:58:09.991Z,1011.39
2017-04-23T03:58:50.554Z,1011.39
2017-04-23T03:59:31.022Z,1011.4
2017-04-23T04:00:11.551Z,1011.37
2017-04-23T04:00:52.006Z,1011.41
2017-04-23T04:01:32.512Z,1011.42
2017-04-23T04:02:12.982Z,1011.43
2017-04-23T04:02:53.450Z,1011.4
2017-04-23T04:03:34.007Z,1011.42
2017-04-23T04:04:14.478Z,1011.41
2017-04-23T04:04:55.077Z,1011.38
2017-04-23T04:05:35.520Z,1011.43
2017-04-23T04:06:16.005Z,1011.43
2017-04-23T04:06:56.507Z,1011.47
2017-04-23T04:07:37.007Z,1011.47
2017-04-23T04:08:17.508Z,1011.48
2017-04-23T04:08:58.079Z,1011.49
2017-04-23T04:09:38.550Z,1011.45
2017-04-23T04:10:19.069Z,1011.47
2017-04-23T04:10:59.533Z,1011.47
2017-04-23T04:11:40.023Z,1011.42
2017-04-23T04:12:20.566Z,1011.46
2017-04-23T04:13:01.071Z,1011.49
2017-04-23T04:13:41.537Z,1011.48
2017-04-23T04:14:22.033Z,1011.53
2017-04-23T04:15:02.554Z,1011.48
2017-04-23T04:15:43.001Z,1011.52
2017-04-23T04:16:23.491Z,1011.55
2017-04-23T04:17:03.972Z,1011.56
2017-04-23T04:17:44.494Z,1011.59
2017-04-23T04:18:24.990Z,1011.58
2017-04-23T04:19:05.453Z,1011.51
2017-04-23T04:19:45.996Z,1011.53
2017-04-23T04:20:26.445Z,1011.57
2017-04-23T04:21:06.968Z,1011.57
2017-04-23T04:21:47.471Z,1011.6
2017-04-23T04:22:27.933Z,1011.54
2017-04-23T04:23:08.443Z,1011.56
2017-04-23T04:23:48.953Z,1011.56
2017-04-23T04:24:29.438Z,1011.56
2017-04-23T04:25:09.884Z,1011.55
2017-04-23T04:25:50.388Z,1011.56
2017-04-23T04:26:30.887Z,1011.58
2017-04-23T04:27:11.393Z,1011.58
2017-04-23T04:27:51.946Z,1011.62
2017-04-23T04:28:32.410Z,1011.58
2017-04-23T04:29:12.880Z,1011.55
2017-04-23T04:29:53.363Z,1011.58
2017-04-23T04:30:33.859Z,1011.62
2017-04-23T04:31:14.359Z,1011.62
2017-04-23T04:31:54.885Z,1011.63
2017-04-23T04:32:35.402Z,1011.61
2017-04-23T04:33:15.897Z,1011.62
2017-04-23T04:33:56.377Z,1011.66
2017-04-23T04:34:36.876Z,1011.62
2017-04-23T04:35:17.379Z,1011.67
2017-04-23T04:35:57.846Z,1011.71
2017-04-23T04:36:38.312Z,1011.7
2017-04-23T04:37:18.836Z,1011.76
2017-04-23T04:37:59.268Z,1011.77
2017-04-23T04:38:39.782Z,1011.76
2017-04-23T04:39:20.248Z,1011.79
2017-04-23T04:40:00.774Z,1011.74
2017-04-23T04:40:41.227Z,1011.77
2017-04-23T04:41:21.716Z,1011.79
2017-04-23T04:42:02.227Z,1011.82
2017-04-23T04:42:42.660Z,1011.84
2017-04-23T04:43:23.137Z,1011.83
2017-04-23T04:44:03.641Z,1011.79
2017-04-23T04:44:44.153Z,1011.79
2017-04-23T04:45:24.822Z,1011.85
2017-04-23T04:46:05.114Z,1011.83
2017-04-23T04:46:45.609Z,1011.82
2017-04-23T04:47:26.101Z,1011.85
2017-04-23T04:48:06.595Z,1011.78
2017-04-23T04:48:47.073Z,1011.8
2017-04-23T04:49:27.626Z,1011.83
2017-04-23T04:50:08.101Z,1011.86
2017-04-23T04:50:48.577Z,1011.85
2017-04-23T04:51:29.080Z,1011.88
2017-04-23T04:52:09.620Z,1011.88
2017-04-23T04:52:50.087Z,1011.86
2017-04-23T04:53:30.636Z,1011.94
2017-04-23T04:54:11.081Z,1011.93
2017-04-23T04:54:51.580Z,1011.98
2017-04-23T04:55:32.067Z,1011.91
2017-04-23T04:56:12.572Z,1011.93
2017-04-23T04:56:53.036Z,1011.95
2017-04-23T04:57:33.519Z,1011.88
2017-04-23T04:58:13.979Z,1011.92
2017-04-23T04:58:54.462Z,1011.92
2017-04-23T04:59:34.938Z,1011.93
2017-04-23T05:00:15.449Z,1011.92
2017-04-23T05:00:55.953Z,1011.96
2017-04-23T05:01:36.490Z,1011.92
2017-04-23T05:02:16.966Z,1011.95
2017-04-23T05:02:57.456Z,1011.95
2017-04-23T05:03:37.913Z,1011.93
2017-04-23T05:04:18.412Z,1011.94
2017-04-23T05:04:58.915Z,1011.95
2017-04-23T05:05:39.374Z,1011.98
2017-04-23T05:06:19.902Z,1011.98
2017-04-23T05:07:00.412Z,1011.99
2017-04-23T05:07:40.906Z,1011.95
2017-04-23T05:08:21.391Z,1012.01
2017-04-23T05:09:01.855Z,1012.02
2017-04-23T05:09:42.340Z,1012.04
2017-04-23T05:10:22.862Z,1012.02
2017-04-23T05:11:03.330Z,1012.03
2017-04-23T05:11:43.856Z,1012
2017-04-23T05:12:24.352Z,1012.05
2017-04-23T05:13:04.815Z,1012.07
2017-04-23T05:13:45.280Z,1012.03
2017-04-23T05:14:25.817Z,1012.07
2017-04-23T05:15:06.248Z,1012.09
2017-04-23T05:15:46.812Z,1012.1
2017-04-23T05:16:27.294Z,1012.11
2017-04-23T05:17:07.786Z,1012.15
2017-04-23T05:17:48.263Z,1012.13
2017-04-23T05:18:28.742Z,1012.13
2017-04-23T05:19:09.248Z,1012.13
2017-04-23T05:19:49.741Z,1012.14
2017-04-23T05:20:30.249Z,1012.13
2017-04-23T05:21:10.785Z,1012.17
2017-04-23T05:21:51.251Z,1012.19
2017-04-23T05:22:31.756Z,1012.12
2017-04-23T05:23:12.280Z,1012.16
2017-04-23T05:23:52.792Z,1012.17
2017-04-23T05:24:33.270Z,1012.18
2017-04-23T05:25:13.757Z,1012.16
2017-04-23T05:25:54.279Z,1012.21
2017-04-23T05:26:34.751Z,1012.19
2017-04-23T05:27:15.245Z,1012.2
2017-04-23T05:27:55.742Z,1012.23
2017-04-23T05:28:36.222Z,1012.17
2017-04-23T05:29:16.814Z,1012.17
2017-04-23T05:29:57.236Z,1012.19
2017-04-23T05:30:37.699Z,1012.22
2017-04-23T05:31:18.233Z,1012.23
2017-04-23T05:31:58.692Z,1012.2
2017-04-23T05:32:39.240Z,1012.26
2017-04-23T05:33:19.706Z,1012.25
2017-04-23T05:34:00.211Z,1012.21
2017-04-23T05:34:40.713Z,1012.22
2017-04-23T05:35:21.211Z,1012.22
2017-04-23T05:37:20.383Z,1012.26
2017-04-23T05:38:00.878Z,1012.31
2017-04-23T05:38:41.391Z,1012.3
2017-04-23T05:39:21.894Z,1012.27
2017-04-23T05:40:02.376Z,1012.32
2017-04-23T05:40:42.885Z,1012.31
2017-04-23T05:41:23.429Z,1012.32
2017-04-23T05:42:03.914Z,1012.28
2017-04-23T05:42:44.431Z,1012.33
2017-04-23T05:43:24.911Z,1012.33
2017-04-23T05:44:05.539Z,1012.3
2017-04-23T05:44:46.036Z,1012.3
2017-04-23T05:45:26.571Z,1012.32
2017-04-23T05:46:08.914Z,1012.33
2017-04-23T05:46:49.399Z,1012.33
2017-04-23T05:47:29.917Z,1012.36
2017-04-23T05:48:10.355Z,1012.39
2017-04-23T05:48:50.892Z,1012.39
2017-04-23T05:49:31.353Z,1012.41
2017-04-23T05:50:11.994Z,1012.44
2017-04-23T05:50:52.504Z,1012.42
2017-04-23T05:51:32.967Z,1012.44
2017-04-23T05:52:13.440Z,1012.41
2017-04-23T05:52:53.951Z,1012.45
2017-04-23T05:53:34.432Z,1012.44
2017-04-23T05:54:14.948Z,1012.45
2017-04-23T05:54:55.478Z,1012.42
2017-04-23T05:55:35.948Z,1012.47
2017-04-23T05:56:16.426Z,1012.42
2017-04-23T05:56:56.944Z,1012.45
2017-04-23T05:57:37.434Z,1012.48
2017-04-23T05:58:17.935Z,1012.47
2017-04-23T05:58:58.455Z,1012.46
2017-04-23T05:59:38.972Z,1012.47
2017-04-23T06:00:19.411Z,1012.49
2017-04-23T06:00:59.935Z,1012.43
2017-04-23T06:01:40.429Z,1012.49
2017-04-23T06:02:20.939Z,1012.54
2017-04-23T06:03:01.435Z,1012.52
2017-04-23T06:03:41.955Z,1012.49
2017-04-23T06:04:22.438Z,1012.47
2017-04-23T06:05:02.893Z,1012.48
2017-04-23T06:05:43.390Z,1012.52
2017-04-23T06:06:23.892Z,1012.47
2017-04-23T06:07:04.394Z,1012.52
2017-04-23T06:07:45.190Z,1012.51
2017-04-23T06:08:25.670Z,1012.51
2017-04-23T06:09:06.151Z,1012.55
2017-04-23T06:09:46.625Z,1012.55
2017-04-23T06:10:27.131Z,1012.53
2017-04-23T06:11:07.617Z,1012.58
2017-04-23T06:11:48.098Z,1012.61
2017-04-23T06:12:28.608Z,1012.58
2017-04-23T06:13:09.099Z,1012.65
2017-04-23T06:13:49.607Z,1012.62
2017-04-23T06:14:30.088Z,1012.66
2017-04-23T06:15:10.552Z,1012.59
2017-04-23T06:15:51.156Z,1012.63
2017-04-23T06:16:31.684Z,1012.62
2017-04-23T06:17:12.155Z,1012.63
2017-04-23T06:17:52.674Z,1012.71
2017-04-23T06:18:33.290Z,1012.7
2017-04-23T06:19:13.789Z,1012.69
2017-04-23T06:19:54.282Z,1012.71
2017-04-23T06:20:34.718Z,1012.64
2017-04-23T06:21:15.220Z,1012.68
2017-04-23T06:21:55.694Z,1012.64
2017-04-23T06:22:36.216Z,1012.71
2017-04-23T06:23:16.675Z,1012.69
2017-04-23T06:23:57.245Z,1012.74
2017-04-23T06:24:37.866Z,1012.68
2017-04-23T06:25:18.471Z,1012.7
2017-04-23T06:25:59.257Z,1012.67
2017-04-23T06:26:39.757Z,1012.69
2017-04-23T06:27:20.223Z,1012.69
2017-04-23T06:28:00.709Z,1012.71
2017-04-23T06:28:41.293Z,1012.7
2017-04-23T06:29:21.661Z,1012.67
2017-04-23T06:30:02.205Z,1012.74
2017-04-23T06:30:42.680Z,1012.74
2017-04-23T06:31:23.367Z,1012.74
2017-04-23T06:32:04.208Z,1012.75
2017-04-23T06:32:44.694Z,1012.78
2017-04-23T06:33:25.172Z,1012.77
2017-04-23T06:34:05.832Z,1012.79
2017-04-23T06:34:46.879Z,1012.77
2017-04-23T06:35:27.407Z,1012.73
2017-04-23T06:36:07.883Z,1012.76
2017-04-23T06:36:48.337Z,1012.75
2017-04-23T06:37:28.850Z,1012.77
2017-04-23T06:38:09.295Z,1012.82
2017-04-23T06:38:49.962Z,1012.82
2017-04-23T06:39:30.361Z,1012.71
2017-04-23T06:40:10.833Z,1012.77
2017-04-23T06:40:51.352Z,1012.74
2017-04-23T06:41:31.826Z,1012.74
2017-04-23T06:42:12.344Z,1012.75
2017-04-23T06:42:52.874Z,1012.75
2017-04-23T06:43:33.402Z,1012.78
2017-04-23T06:44:13.849Z,1012.73
2017-04-23T06:44:54.402Z,1012.76
2017-04-23T06:45:34.779Z,1012.76
2017-04-23T06:46:15.271Z,1012.76
2017-04-23T06:46:55.785Z,1012.79
2017-04-23T06:47:36.269Z,1012.86
2017-04-23T06:48:16.721Z,1012.86
2017-04-23T06:48:57.252Z,1012.86
2017-04-23T06:49:37.764Z,1012.81
2017-04-23T06:50:18.281Z,1012.81
2017-04-23T06:50:58.792Z,1012.81
2017-04-23T06:51:39.218Z,1012.8
2017-04-23T06:52:19.725Z,1012.79
2017-04-23T06:53:00.244Z,1012.81
2017-04-23T06:53:40.707Z,1012.8
2017-04-23T06:54:21.223Z,1012.82
2017-04-23T06:55:01.796Z,1012.81
2017-04-23T06:55:42.227Z,1012.82
2017-04-23T06:56:22.680Z,1012.8
2017-04-23T06:57:03.255Z,1012.79
2017-04-23T06:57:43.678Z,1012.81
2017-04-23T06:58:24.204Z,1012.84
2017-04-23T06:59:04.644Z,1012.88
2017-04-23T06:59:45.159Z,1012.84
2017-04-23T07:00:25.641Z,1012.8
2017-04-23T07:01:06.243Z,1012.8
2017-04-23T07:01:46.681Z,1012.84
2017-04-23T07:02:27.167Z,1012.83
2017-04-23T07:03:07.730Z,1012.82
2017-04-23T07:03:48.186Z,1012.83
2017-04-23T07:04:28.707Z,1012.79
2017-04-23T07:05:09.160Z,1012.85
2017-04-23T07:05:49.695Z,1012.82
2017-04-23T07:06:30.144Z,1012.8
2017-04-23T07:07:10.672Z,1012.84
2017-04-23T07:07:51.194Z,1012.82
2017-04-23T07:09:48.828Z,1012.79
2017-04-23T07:10:29.354Z,1012.79
2017-04-23T07:11:09.864Z,1012.79
2017-04-23T07:11:50.399Z,1012.75
2017-04-23T07:12:30.915Z,1012.76
2017-04-23T07:13:11.447Z,1012.87
2017-04-23T07:13:51.973Z,1012.86
2017-04-23T07:14:32.495Z,1012.84
2017-04-23T07:15:12.998Z,1012.88
2017-04-23T07:15:53.537Z,1012.8
2017-04-23T07:16:34.038Z,1012.8
2017-04-23T07:17:14.555Z,1012.77
2017-04-23T07:17:55.075Z,1012.73
2017-04-23T07:18:35.621Z,1012.75
2017-04-23T07:19:16.137Z,1012.82
2017-04-23T07:19:56.708Z,1012.78
2017-04-23T07:20:37.228Z,1012.8
2017-04-23T07:21:17.758Z,1012.8
2017-04-23T07:21:58.283Z,1012.8
2017-04-23T07:22:38.784Z,1012.83
2017-04-23T07:23:19.298Z,1012.83
2017-04-23T07:23:59.811Z,1012.83
2017-04-23T07:24:40.343Z,1012.82
2017-04-23T07:25:20.874Z,1012.83
2017-04-23T07:26:01.385Z,1012.82
2017-04-23T07:26:41.902Z,1012.79
2017-04-23T07:27:22.424Z,1012.82
2017-04-23T07:28:02.941Z,1012.87
2017-04-23T07:28:43.547Z,1012.84
2017-04-23T07:29:24.136Z,1012.88
2017-04-23T07:30:04.689Z,1012.84
2017-04-23T07:30:45.156Z,1012.85
2017-04-23T07:31:25.679Z,1012.86
2017-04-23T07:32:06.173Z,1012.84
2017-04-23T07:32:46.702Z,1012.84
2017-04-23T07:33:27.217Z,1012.83
2017-04-23T07:34:07.791Z,1012.77
2017-04-23T07:34:48.272Z,1012.84
2017-04-23T07:35:28.755Z,1012.83
2017-04-23T07:36:09.271Z,1012.8
2017-04-23T07:36:49.802Z,1012.83
2017-04-23T07:37:30.307Z,1012.91
2017-04-23T07:38:10.815Z,1012.95
2017-04-23T07:38:51.361Z,1012.88
2017-04-23T07:39:31.814Z,1012.89
2017-04-23T07:40:12.324Z,1012.83
2017-04-23T07:40:52.847Z,1012.83
2017-04-23T07:41:33.374Z,1012.8
2017-04-23T07:42:13.904Z,1012.81
2017-04-23T07:42:54.412Z,1012.83
2017-04-23T07:43:34.939Z,1012.81
2017-04-23T07:44:15.450Z,1012.79
2017-04-23T07:44:55.978Z,1012.75
2017-04-23T07:45:36.491Z,1012.81
2017-04-23T07:46:17.573Z,1012.79
2017-04-23T07:46:58.247Z,1012.8
2017-04-23T07:47:38.954Z,1012.78
2017-04-23T07:48:19.458Z,1012.79
2017-04-23T07:48:59.981Z,1012.76
2017-04-23T07:49:40.472Z,1012.79
2017-04-23T07:51:05.753Z,1012.81
2017-04-23T07:52:47.760Z,1012.81
2017-04-23T07:53:28.187Z,1012.84
2017-04-23T07:54:08.707Z,1012.77
2017-04-23T07:54:49.183Z,1012.81
2017-04-23T07:55:29.671Z,1012.77
2017-04-23T07:56:10.190Z,1012.77
2017-04-23T07:56:50.744Z,1012.78
2017-04-23T07:57:31.309Z,1012.77
2017-04-23T07:58:11.765Z,1012.8
2017-04-23T07:58:52.293Z,1012.78
2017-04-23T07:59:32.802Z,1012.71
2017-04-23T08:00:13.311Z,1012.75
2017-04-23T08:00:53.858Z,1012.73
2017-04-23T08:01:34.363Z,1012.72
2017-04-23T08:02:14.888Z,1012.68
2017-04-23T08:02:55.402Z,1012.7
2017-04-23T08:03:35.920Z,1012.73
2017-04-23T08:04:16.436Z,1012.72
2017-04-23T08:04:56.995Z,1012.74
2017-04-23T08:05:37.497Z,1012.72
2017-04-23T08:06:17.965Z,1012.72
2017-04-23T08:06:58.477Z,1012.69
2017-04-23T08:07:38.951Z,1012.74
2017-04-23T08:08:19.474Z,1012.72
2017-04-23T08:09:00.017Z,1012.75
2017-04-23T08:09:40.510Z,1012.75
2017-04-23T08:10:21.014Z,1012.79
2017-04-23T08:11:01.536Z,1012.72
2017-04-23T08:11:42.220Z,1012.73
2017-04-23T08:12:22.777Z,1012.72
2017-04-23T08:13:03.234Z,1012.74
2017-04-23T08:13:43.727Z,1012.7
2017-04-23T08:14:24.208Z,1012.72
2017-04-23T08:15:04.720Z,1012.74
2017-04-23T08:15:45.285Z,1012.74
2017-04-23T08:16:25.989Z,1012.71
2017-04-23T08:17:06.534Z,1012.7
2017-04-23T08:17:47.155Z,1012.75